createdAt,value
2019-02-16T00:01:59.035Z,21.56
2019-02-16T00:07:03.070Z,21.56
2019-02-16T00:12:07.384Z,21.51
2019-02-16T00:17:11.494Z,21.51
2019-02-16T00:22:15.724Z,21.46
2019-02-16T00:27:19.877Z,21.38
2019-02-16T00:32:23.896Z,21.41
2019-02-16T00:37:27.947Z,21.41
2019-02-16T00:42:32.077Z,21.35
2019-02-16T00:47:36.246Z,21.33
2019-02-16T00:52:40.470Z,21.24
2019-02-16T00:57:44.676Z,21.30
2019-02-16T01:02:48.844Z,21.30
2019-02-16T01:07:52.998Z,21.27
2019-02-16T01:12:57.139Z,21.19
2019-02-16T01:18:01.271Z,21.22
2019-02-16T01:23:05.420Z,21.23
2019-02-16T01:28:09.632Z,21.23
2019-02-16T01:33:13.810Z,21.21
2019-02-16T01:38:18.006Z,21.17
2019-02-16T01:43:22.270Z,21.13
2019-02-16T01:48:26.348Z,21.04
2019-02-16T01:53:30.563Z,21.04
2019-02-16T01:58:34.708Z,21.10
2019-02-16T02:03:38.753Z,21.08
2019-02-16T02:08:42.819Z,21.08
2019-02-16T02:13:46.965Z,21.05
2019-02-16T02:18:51.047Z,21.04
2019-02-16T02:23:55.187Z,21.04
2019-02-16T02:28:59.255Z,20.94
2019-02-16T02:34:03.388Z,21.01
2019-02-16T02:39:07.538Z,20.99
2019-02-16T02:44:11.739Z,20.91
2019-02-16T02:49:15.964Z,20.98
2019-02-16T02:54:20.008Z,20.98
2019-02-16T02:59:24.021Z,20.98
2019-02-16T03:04:28.073Z,20.97
2019-02-16T03:09:32.210Z,20.88
2019-02-16T03:14:36.363Z,20.95
2019-02-16T03:19:40.467Z,20.94
2019-02-16T03:24:44.617Z,20.93
2019-02-16T03:30:19.346Z,20.92
2019-02-16T03:35:49.593Z,20.91
2019-02-16T03:40:53.756Z,20.89
2019-02-16T03:45:57.779Z,20.89
2019-02-16T03:51:01.916Z,20.89
2019-02-16T03:56:06.182Z,20.90
2019-02-16T04:01:10.401Z,20.88
2019-02-16T04:06:14.568Z,20.87
2019-02-16T04:11:18.739Z,20.83
2019-02-16T04:16:22.767Z,20.73
2019-02-16T04:21:26.970Z,20.81
2019-02-16T04:26:31.118Z,20.71
2019-02-16T04:31:35.233Z,20.79
2019-02-16T04:36:39.415Z,20.78
2019-02-16T04:41:43.433Z,20.78
2019-02-16T04:46:47.485Z,20.75
2019-02-16T04:51:51.589Z,20.75
2019-02-16T04:56:55.611Z,20.75
2019-02-16T05:01:59.691Z,20.74
2019-02-16T05:07:03.854Z,20.73
2019-02-16T05:12:08.083Z,20.63
2019-02-16T05:17:12.240Z,20.63
2019-02-16T05:22:16.286Z,20.69
2019-02-16T05:27:20.332Z,20.69
2019-02-16T05:32:24.625Z,20.68
2019-02-16T05:37:30.461Z,20.68
2019-02-16T05:42:34.444Z,20.69
2019-02-16T05:47:38.603Z,20.57
2019-02-16T05:52:42.714Z,20.65
2019-02-16T05:57:46.781Z,20.64
2019-02-16T06:02:50.888Z,20.64
2019-02-16T06:07:55.031Z,20.55
2019-02-16T06:12:59.034Z,20.64
2019-02-16T06:18:03.045Z,20.62
2019-02-16T06:23:07.131Z,20.62
2019-02-16T06:28:11.133Z,20.60
2019-02-16T06:33:15.345Z,20.58
2019-02-16T06:38:19.378Z,20.57
2019-02-16T06:43:23.477Z,20.56
2019-02-16T06:48:27.567Z,20.56
2019-02-16T06:53:31.645Z,20.56
2019-02-16T06:58:35.685Z,20.55
2019-02-16T07:03:39.680Z,20.46
2019-02-16T07:08:44.320Z,20.55
2019-02-16T07:13:48.353Z,20.55
2019-02-16T07:18:57.654Z,20.57
2019-02-16T07:24:01.786Z,20.55
2019-02-16T07:29:05.815Z,20.45
2019-02-16T07:34:09.986Z,20.45
2019-02-16T07:39:13.988Z,20.55
2019-02-16T07:44:33.194Z,20.54
2019-02-16T07:49:44.555Z,20.52
2019-02-16T07:55:12.189Z,20.54
2019-02-16T08:00:27.070Z,20.54
2019-02-16T08:05:41.422Z,15.79
2019-02-16T08:11:00.917Z,18.66
2019-02-16T08:16:19.788Z,20.00
2019-02-16T08:21:45.713Z,20.86
2019-02-16T08:26:57.085Z,21.28
2019-02-16T08:32:10.120Z,21.22
2019-02-16T08:37:35.997Z,21.18
2019-02-16T08:42:49.644Z,21.27
2019-02-16T08:48:17.969Z,21.13
2019-02-16T08:53:31.481Z,21.02
2019-02-16T08:58:51.160Z,21.02
2019-02-16T09:04:12.786Z,21.05
2019-02-16T09:09:34.249Z,20.91
2019-02-16T09:14:48.475Z,20.90
2019-02-16T09:20:11.607Z,20.88
2019-02-16T09:25:28.277Z,20.83
2019-02-16T09:30:54.394Z,20.83
2019-02-16T09:36:20.524Z,20.80
2019-02-16T09:41:47.856Z,20.76
2019-02-16T09:47:16.875Z,20.73
2019-02-16T09:52:54.751Z,20.76
2019-02-16T09:58:17.792Z,20.57
2019-02-16T10:03:33.621Z,20.64
2019-02-16T10:08:47.251Z,20.65
2019-02-16T10:14:03.850Z,20.65
2019-02-16T10:19:25.455Z,20.86
2019-02-16T10:24:46.874Z,20.99
2019-02-16T10:30:09.676Z,20.94
2019-02-16T10:35:31.535Z,20.94
2019-02-16T10:40:49.690Z,20.99
2019-02-16T10:46:18.566Z,21.02
2019-02-16T10:51:33.102Z,20.95
2019-02-16T10:56:46.247Z,21.01
2019-02-16T11:02:03.367Z,21.02
2019-02-16T11:07:12.566Z,21.04
2019-02-16T11:12:31.737Z,21.05
2019-02-16T11:17:53.435Z,21.12
2019-02-16T11:23:15.109Z,21.09
2019-02-16T11:28:36.034Z,21.09
2019-02-16T11:34:11.177Z,21.14
2019-02-16T11:39:37.016Z,21.14
2019-02-16T11:45:14.917Z,20.99
2019-02-16T11:50:43.981Z,20.99
2019-02-16T11:56:12.744Z,21.00
2019-02-16T12:01:35.730Z,20.91
2019-02-16T12:06:47.788Z,20.99
2019-02-16T12:12:13.129Z,21.01
2019-02-16T12:17:38.158Z,21.02
2019-02-16T12:22:47.212Z,21.01
2019-02-16T12:28:05.942Z,20.97
2019-02-16T12:33:26.192Z,20.89
2019-02-16T12:38:49.437Z,20.96
2019-02-16T12:44:30.768Z,20.97
2019-02-16T12:49:59.881Z,20.99
2019-02-16T12:55:21.518Z,20.99
2019-02-16T13:00:46.971Z,21.01
2019-02-16T13:05:58.220Z,20.60
2019-02-16T13:11:08.011Z,20.74
2019-02-16T13:16:46.093Z,20.58
2019-02-16T13:21:58.341Z,20.84
2019-02-16T13:27:24.135Z,20.58
2019-02-16T13:32:54.082Z,20.65
2019-02-16T13:38:10.492Z,20.67
2019-02-16T13:43:30.085Z,20.92
2019-02-16T13:48:41.948Z,20.92
2019-02-16T13:54:04.989Z,21.13
2019-02-16T13:59:37.158Z,21.21
2019-02-16T14:04:58.607Z,21.35
2019-02-16T14:10:29.250Z,21.29
2019-02-16T14:15:52.264Z,21.25
2019-02-16T14:20:56.286Z,21.10
2019-02-16T14:26:00.388Z,21.19
2019-02-16T14:31:04.407Z,21.20
2019-02-16T14:36:08.486Z,21.20
2019-02-16T14:41:12.501Z,21.22
2019-02-16T14:46:16.508Z,21.23
2019-02-16T14:51:20.610Z,21.22
2019-02-16T14:56:24.760Z,21.22
2019-02-16T15:01:28.770Z,21.12
2019-02-16T15:06:32.773Z,21.24
2019-02-16T15:11:36.836Z,21.11
2019-02-16T15:16:40.923Z,21.11
2019-02-16T15:21:44.942Z,21.20
2019-02-16T15:26:48.986Z,21.12
2019-02-16T15:31:53.018Z,21.20
2019-02-16T15:36:57.022Z,21.28
2019-02-16T15:42:02.903Z,21.36
2019-02-16T15:47:06.863Z,21.33
2019-02-16T15:52:10.992Z,21.33
2019-02-16T15:57:15.014Z,21.35
2019-02-16T16:02:19.097Z,21.44
2019-02-16T16:07:23.182Z,21.42
2019-02-16T16:13:04.417Z,21.28
2019-02-16T16:18:23.585Z,21.34
2019-02-16T16:23:44.980Z,21.34
2019-02-16T16:29:00.438Z,21.32
2019-02-16T16:34:19.526Z,21.32
2019-02-16T16:39:37.834Z,21.31
2019-02-16T16:45:09.808Z,21.29
2019-02-16T16:51:22.772Z,21.37
2019-02-16T16:56:57.712Z,21.32
2019-02-16T17:02:38.741Z,21.22
2019-02-16T17:08:01.318Z,21.30
2019-02-16T17:13:15.444Z,21.54
2019-02-16T17:18:42.581Z,22.07
2019-02-16T17:24:12.178Z,22.45
2019-02-16T17:29:31.193Z,22.59
2019-02-16T17:35:00.697Z,22.71
2019-02-16T17:40:30.003Z,22.73
2019-02-16T17:45:41.935Z,22.69
2019-02-16T17:51:13.720Z,22.69
2019-02-16T17:56:35.389Z,22.64
2019-02-16T18:02:04.330Z,22.56
2019-02-16T18:07:23.418Z,22.56
2019-02-16T18:12:46.495Z,22.60
2019-02-16T18:18:06.656Z,22.51
2019-02-16T18:23:15.206Z,22.49
2019-02-16T18:28:34.299Z,22.49
2019-02-16T18:33:57.282Z,22.43
2019-02-16T18:39:26.185Z,22.43
2019-02-16T18:44:48.047Z,22.56
2019-02-16T18:50:06.236Z,22.58
2019-02-16T18:55:32.336Z,22.58
2019-02-16T19:00:55.405Z,22.57
2019-02-16T19:06:11.259Z,22.49
2019-02-16T19:11:39.295Z,22.47
2019-02-16T19:17:00.753Z,22.47
2019-02-16T19:22:14.493Z,22.47
2019-02-16T19:27:36.292Z,22.64
2019-02-16T19:32:57.745Z,22.64
2019-02-16T19:38:19.141Z,22.53
2019-02-16T19:43:37.904Z,22.60
2019-02-16T19:48:48.906Z,22.52
2019-02-16T19:53:59.610Z,22.52
2019-02-16T19:59:21.209Z,22.34
2019-02-16T20:05:02.204Z,22.31
2019-02-16T20:10:21.496Z,22.31
2019-02-16T20:15:50.546Z,22.22
2019-02-16T20:21:08.749Z,22.05
2019-02-16T20:26:30.495Z,21.96
2019-02-16T20:31:59.333Z,21.98
2019-02-16T20:37:13.418Z,21.95
2019-02-16T20:42:54.475Z,21.95
2019-02-16T20:48:02.949Z,21.87
2019-02-16T20:53:13.925Z,21.87
2019-02-16T20:58:37.516Z,21.80
2019-02-16T21:04:03.534Z,21.72
2019-02-16T21:09:23.218Z,21.76
2019-02-16T21:14:36.195Z,21.83
2019-02-16T21:19:59.293Z,21.79
2019-02-16T21:25:22.183Z,21.76
2019-02-16T21:30:41.408Z,21.90
2019-02-16T21:36:02.992Z,21.90
2019-02-16T21:41:13.746Z,21.99
2019-02-16T21:46:47.041Z,22.00
2019-02-16T21:52:16.146Z,22.01
2019-02-16T21:57:37.616Z,22.01
2019-02-16T22:02:54.431Z,22.00
2019-02-16T22:08:17.441Z,21.99
2019-02-16T22:13:21.499Z,21.97
2019-02-16T22:18:25.575Z,21.97
2019-02-16T22:23:30.956Z,22.00
2019-02-16T22:28:35.029Z,21.97
2019-02-16T22:33:39.056Z,21.96
2019-02-16T22:38:43.949Z,21.90
2019-02-16T22:43:48.208Z,21.97
2019-02-16T22:48:52.246Z,21.96
2019-02-16T22:53:56.289Z,21.96
2019-02-16T22:59:00.340Z,21.93
2019-02-16T23:04:04.725Z,21.91
2019-02-16T23:09:20.935Z,21.91
2019-02-16T23:14:25.126Z,21.91
2019-02-16T23:19:29.376Z,21.87
2019-02-16T23:24:33.629Z,21.91
2019-02-16T23:29:37.769Z,21.91
2019-02-16T23:34:42.014Z,21.88
2019-02-16T23:39:46.229Z,21.88
2019-02-16T23:44:50.413Z,21.84
2019-02-16T23:49:54.716Z,21.88
2019-02-16T23:54:58.821Z,21.86
